Aviation Digital Data Service (ADDS)

Output produced by METARs form (0427 UTC 24 January 2019)
found at http://www.aviationweather.gov/metar/data/
 
METAR text: KBJC 240412Z AUTO 10006KT 10SM SCT085 SCT110 00/M10 A2997 RMK AO2 PWINO
Conditions at: KBJC (BROOMFIELD/JEFFC, CO, US) observed 0412 UTC 24 January 2019
Temperature: 0.0°C (32°F)
Dewpoint: -10.0°C (14°F) [RH = 47%]
Pressure (altimeter): 29.97 inches Hg (1015.0 mb)
Winds: from the E (100 degrees) at 7 MPH (6 knots; 3.1 m/s)
Visibility: 10 or more miles (16+ km)
Ceiling: at least 12,000 feet AGL
Clouds: scattered clouds at 8500 feet AGL
scattered clouds at 11000 feet AGL
Weather: automated observation with no human augmentation;
there may or may not be significant weather present at this time

METAR text: KBJC 240345Z 10010KT 10SM SCT150 00/M11 A2994
Conditions at: KBJC (BROOMFIELD/JEFFC, CO, US) observed 0345 UTC 24 January 2019
Temperature: 0.0°C (32°F)
Dewpoint: -11.0°C (12°F) [RH = 43%]
Pressure (altimeter): 29.94 inches Hg (1014.0 mb)
Winds: from the E (100 degrees) at 12 MPH (10 knots; 5.1 m/s)
Visibility: 10 or more miles (16+ km)
Ceiling: at least 12,000 feet AGL
Clouds: scattered clouds at 15000 feet AGL
Weather: no significant weather observed at this time

METAR text: KBJC 240245Z 00000KT 30SM BKN090 02/M09 A2993
Conditions at: KBJC (BROOMFIELD/JEFFC, CO, US) observed 0245 UTC 24 January 2019
Temperature: 2.0°C (36°F)
Dewpoint: -9.0°C (16°F) [RH = 44%]
Pressure (altimeter): 29.93 inches Hg (1013.6 mb)
Winds: calm
Visibility: 30 miles (48 km)
Ceiling: 9000 feet AGL
Clouds: broken clouds at 9000 feet AGL
Weather: no significant weather observed at this time

METAR text: KBJC 240145Z 01004KT 30SM SCT100 02/M09 A2992
Conditions at: KBJC (BROOMFIELD/JEFFC, CO, US) observed 0145 UTC 24 January 2019
Temperature: 2.0°C (36°F)
Dewpoint: -9.0°C (16°F) [RH = 44%]
Pressure (altimeter): 29.92 inches Hg (1013.3 mb)
Winds: from the N (10 degrees) at 5 MPH (4 knots; 2.1 m/s)
Visibility: 30 miles (48 km)
Ceiling: at least 12,000 feet AGL
Clouds: scattered clouds at 10000 feet AGL
Weather: no significant weather observed at this time

METAR text: KBJC 232350Z 28028G39KT 30SM SCT100 SCT160 03/M12 A2985
Conditions at: KBJC (BROOMFIELD/JEFFC, CO, US) observed 2350 UTC 23 January 2019
Temperature: 3.0°C (37°F)
Dewpoint: -12.0°C (10°F) [RH = 32%]
Pressure (altimeter): 29.85 inches Hg (1010.9 mb)
Winds: from the W (280 degrees) at 32 MPH (28 knots; 14.4 m/s)
gusting to 45 MPH (39 knots; 20.1 m/s)
Visibility: 30 miles (48 km)
Ceiling: at least 12,000 feet AGL
Clouds: scattered clouds at 10000 feet AGL
scattered clouds at 16000 feet AGL
Weather: no significant weather observed at this time

METAR text: KBJC 232249Z 27034G41KT 30SM SCT100 SCT160 05/M12 A2986
Conditions at: KBJC (BROOMFIELD/JEFFC, CO, US) observed 2249 UTC 23 January 2019
Temperature: 5.0°C (41°F)
Dewpoint: -12.0°C (10°F) [RH = 28%]
Pressure (altimeter): 29.86 inches Hg (1011.3 mb)
Winds: from the W (270 degrees) at 39 MPH (34 knots; 17.5 m/s)
gusting to 47 MPH (41 knots; 21.1 m/s)
Visibility: 30 miles (48 km)
Ceiling: at least 12,000 feet AGL
Clouds: scattered clouds at 10000 feet AGL
scattered clouds at 16000 feet AGL
Weather: no significant weather observed at this time

METAR text: KBJC 232145Z 27024G34KT 30SM SCT100 SCT160 07/M11 A2984
Conditions at: KBJC (BROOMFIELD/JEFFC, CO, US) observed 2145 UTC 23 January 2019
Temperature: 7.0°C (45°F)
Dewpoint: -11.0°C (12°F) [RH = 26%]
Pressure (altimeter): 29.84 inches Hg (1010.6 mb)
Winds: from the W (270 degrees) at 28 MPH (24 knots; 12.3 m/s)
gusting to 39 MPH (34 knots; 17.5 m/s)
Visibility: 30 miles (48 km)
Ceiling: at least 12,000 feet AGL
Clouds: scattered clouds at 10000 feet AGL
scattered clouds at 16000 feet AGL
Weather: no significant weather observed at this time

METAR text: KBJC 232045Z 36006KT 30SM SCT100 BKN160 07/M10 A2985
Conditions at: KBJC (BROOMFIELD/JEFFC, CO, US) observed 2045 UTC 23 January 2019
Temperature: 7.0°C (45°F)
Dewpoint: -10.0°C (14°F) [RH = 29%]
Pressure (altimeter): 29.85 inches Hg (1010.9 mb)
Winds: from the N (360 degrees) at 7 MPH (6 knots; 3.1 m/s)
Visibility: 30 miles (48 km)
Ceiling: 16000 feet AGL
Clouds: scattered clouds at 10000 feet AGL
broken clouds at 16000 feet AGL
Weather: no significant weather observed at this time

METAR text: KBJC 231945Z 25014KT 30SM FEW100 BKN160 06/M12 A2986
Conditions at: KBJC (BROOMFIELD/JEFFC, CO, US) observed 1945 UTC 23 January 2019
Temperature: 6.0°C (43°F)
Dewpoint: -12.0°C (10°F) [RH = 26%]
Pressure (altimeter): 29.86 inches Hg (1011.3 mb)
Winds: from the WSW (250 degrees) at 16 MPH (14 knots; 7.2 m/s)
Visibility: 30 miles (48 km)
Ceiling: 16000 feet AGL
Clouds: few clouds at 10000 feet AGL
broken clouds at 16000 feet AGL
Weather: no significant weather observed at this time

METAR text: KBJC 231853Z 27015G20KT 30SM FEW100 BKN160 04/M12 A2989
Conditions at: KBJC (BROOMFIELD/JEFFC, CO, US) observed 1853 UTC 23 January 2019
Temperature: 4.0°C (39°F)
Dewpoint: -12.0°C (10°F) [RH = 30%]
Pressure (altimeter): 29.89 inches Hg (1012.3 mb)
Winds: from the W (270 degrees) at 17 MPH (15 knots; 7.7 m/s)
gusting to 23 MPH (20 knots; 10.3 m/s)
Visibility: 30 miles (48 km)
Ceiling: 16000 feet AGL
Clouds: few clouds at 10000 feet AGL
broken clouds at 16000 feet AGL
Weather: no significant weather observed at this time

METAR text: KBJC 231848Z 27015G22KT 30SM FEW100 BKN160 04/M12 A2989
Conditions at: KBJC (BROOMFIELD/JEFFC, CO, US) observed 1848 UTC 23 January 2019
Temperature: 4.0°C (39°F)
Dewpoint: -12.0°C (10°F) [RH = 30%]
Pressure (altimeter): 29.89 inches Hg (1012.3 mb)
Winds: from the W (270 degrees) at 17 MPH (15 knots; 7.7 m/s)
gusting to 25 MPH (22 knots; 11.3 m/s)
Visibility: 30 miles (48 km)
Ceiling: 16000 feet AGL
Clouds: few clouds at 10000 feet AGL
broken clouds at 16000 feet AGL
Weather: no significant weather observed at this time

METAR text: KBJC 231747Z 26016G23KT 30SM FEW100 BKN160 05/M12 A2994
Conditions at: KBJC (BROOMFIELD/JEFFC, CO, US) observed 1747 UTC 23 January 2019
Temperature: 5.0°C (41°F)
Dewpoint: -12.0°C (10°F) [RH = 28%]
Pressure (altimeter): 29.94 inches Hg (1014.0 mb)
Winds: from the W (260 degrees) at 18 MPH (16 knots; 8.2 m/s)
gusting to 26 MPH (23 knots; 11.8 m/s)
Visibility: 30 miles (48 km)
Ceiling: 16000 feet AGL
Clouds: few clouds at 10000 feet AGL
broken clouds at 16000 feet AGL
Weather: no significant weather observed at this time

METAR text: KBJC 231647Z 30017G26KT 30SM FEW100 BKN160 04/M13 A2996
Conditions at: KBJC (BROOMFIELD/JEFFC, CO, US) observed 1647 UTC 23 January 2019
Temperature: 4.0°C (39°F)
Dewpoint: -13.0°C ( 9°F) [RH = 28%]
Pressure (altimeter): 29.96 inches Hg (1014.6 mb)
Winds: from the WNW (300 degrees) at 20 MPH (17 knots; 8.7 m/s)
gusting to 30 MPH (26 knots; 13.4 m/s)
Visibility: 30 miles (48 km)
Ceiling: 16000 feet AGL
Clouds: few clouds at 10000 feet AGL
broken clouds at 16000 feet AGL
Weather: no significant weather observed at this time

METAR text: KBJC 231447Z 29020G29KT 30SM FEW100 M01/M16 A2997 RMK ACSL DSNT SW-W
Conditions at: KBJC (BROOMFIELD/JEFFC, CO, US) observed 1447 UTC 23 January 2019
Temperature: -1.0°C (30°F)
Dewpoint: -16.0°C ( 3°F) [RH = 31%]
Pressure (altimeter): 29.97 inches Hg (1015.0 mb)
Winds: from the WNW (290 degrees) at 23 MPH (20 knots; 10.3 m/s)
gusting to 33 MPH (29 knots; 14.9 m/s)
Visibility: 30 miles (48 km)
Ceiling: at least 12,000 feet AGL
Clouds: few clouds at 10000 feet AGL
Weather: no significant weather observed at this time

METAR text: KBJC 231408Z 28020G29KT 30SM FEW100 M01/M16 A2999 RMK ACSL DSNT SW-W
Conditions at: KBJC (BROOMFIELD/JEFFC, CO, US) observed 1408 UTC 23 January 2019
Temperature: -1.0°C (30°F)
Dewpoint: -16.0°C ( 3°F) [RH = 31%]
Pressure (altimeter): 29.99 inches Hg (1015.7 mb)
Winds: from the W (280 degrees) at 23 MPH (20 knots; 10.3 m/s)
gusting to 33 MPH (29 knots; 14.9 m/s)
Visibility: 30 miles (48 km)
Ceiling: at least 12,000 feet AGL
Clouds: few clouds at 10000 feet AGL
Weather: no significant weather observed at this time

METAR text: KBJC 231347Z 32010KT 30SM FEW100 M01/M17 A2999 RMK ACSL DSNT SW-W
Conditions at: KBJC (BROOMFIELD/JEFFC, CO, US) observed 1347 UTC 23 January 2019
Temperature: -1.0°C (30°F)
Dewpoint: -17.0°C ( 1°F) [RH = 28%]
Pressure (altimeter): 29.99 inches Hg (1015.7 mb)
Winds: from the NW (320 degrees) at 12 MPH (10 knots; 5.1 m/s)
Visibility: 30 miles (48 km)
Ceiling: at least 12,000 feet AGL
Clouds: few clouds at 10000 feet AGL
Weather: no significant weather observed at this time

METAR text: KBJC 231247Z 28027G37KT 30SM FEW100 M02/M16 A2997 RMK ACSL DSNT SW-W
Conditions at: KBJC (BROOMFIELD/JEFFC, CO, US) observed 1247 UTC 23 January 2019
Temperature: -2.0°C (28°F)
Dewpoint: -16.0°C ( 3°F) [RH = 33%]
Pressure (altimeter): 29.97 inches Hg (1015.0 mb)
Winds: from the W (280 degrees) at 31 MPH (27 knots; 13.9 m/s)
gusting to 43 MPH (37 knots; 19.0 m/s)
Visibility: 30 miles (48 km)
Ceiling: at least 12,000 feet AGL
Clouds: few clouds at 10000 feet AGL
Weather: no significant weather observed at this time

METAR text: KBJC 231159Z AUTO 29025G33KT 10SM CLR M01/M16 A2996 RMK AO2 PWINO
Conditions at: KBJC (BROOMFIELD/JEFFC, CO, US) observed 1159 UTC 23 January 2019
Temperature: -1.0°C (30°F)
Dewpoint: -16.0°C ( 3°F) [RH = 31%]
Pressure (altimeter): 29.96 inches Hg (1014.6 mb)
Winds: from the WNW (290 degrees) at 29 MPH (25 knots; 12.9 m/s)
gusting to 38 MPH (33 knots; 17.0 m/s)
Visibility: 10 or more miles (16+ km)
Ceiling: at least 12,000 feet AGL
Clouds: sky clear below 12,000 feet AGL
Weather: automated observation with no human augmentation;
there may or may not be significant weather present at this time

METAR text: KBJC 231153Z AUTO 29027G33KT 10SM CLR M01/M16 A2996 RMK AO2 PWINO
Conditions at: KBJC (BROOMFIELD/JEFFC, CO, US) observed 1153 UTC 23 January 2019
Temperature: -1.0°C (30°F)
Dewpoint: -16.0°C ( 3°F) [RH = 31%]
Pressure (altimeter): 29.96 inches Hg (1014.6 mb)
Winds: from the WNW (290 degrees) at 31 MPH (27 knots; 13.9 m/s)
gusting to 38 MPH (33 knots; 17.0 m/s)
Visibility: 10 or more miles (16+ km)
Ceiling: at least 12,000 feet AGL
Clouds: sky clear below 12,000 feet AGL
Weather: automated observation with no human augmentation;
there may or may not be significant weather present at this time

METAR text: KBJC 231130Z AUTO 29022G28KT 10SM CLR M01/M16 A2998 RMK AO2 PWINO
Conditions at: KBJC (BROOMFIELD/JEFFC, CO, US) observed 1130 UTC 23 January 2019
Temperature: -1.0°C (30°F)
Dewpoint: -16.0°C ( 3°F) [RH = 31%]
Pressure (altimeter): 29.98 inches Hg (1015.3 mb)
Winds: from the WNW (290 degrees) at 25 MPH (22 knots; 11.3 m/s)
gusting to 32 MPH (28 knots; 14.4 m/s)
Visibility: 10 or more miles (16+ km)
Ceiling: at least 12,000 feet AGL
Clouds: sky clear below 12,000 feet AGL
Weather: automated observation with no human augmentation;
there may or may not be significant weather present at this time

METAR text: KBJC 231112Z AUTO 29024G30KT 10SM CLR M01/M16 A2999 RMK AO2 PWINO
Conditions at: KBJC (BROOMFIELD/JEFFC, CO, US) observed 1112 UTC 23 January 2019
Temperature: -1.0°C (30°F)
Dewpoint: -16.0°C ( 3°F) [RH = 31%]
Pressure (altimeter): 29.99 inches Hg (1015.7 mb)
Winds: from the WNW (290 degrees) at 28 MPH (24 knots; 12.3 m/s)
gusting to 34 MPH (30 knots; 15.4 m/s)
Visibility: 10 or more miles (16+ km)
Ceiling: at least 12,000 feet AGL
Clouds: sky clear below 12,000 feet AGL
Weather: automated observation with no human augmentation;
there may or may not be significant weather present at this time

METAR text: KBJC 231053Z AUTO 28017KT 10SM CLR M01/M16 A2999 RMK AO2 PWINO
Conditions at: KBJC (BROOMFIELD/JEFFC, CO, US) observed 1053 UTC 23 January 2019
Temperature: -1.0°C (30°F)
Dewpoint: -16.0°C ( 3°F) [RH = 31%]
Pressure (altimeter): 29.99 inches Hg (1015.7 mb)
Winds: from the W (280 degrees) at 20 MPH (17 knots; 8.7 m/s)
Visibility: 10 or more miles (16+ km)
Ceiling: at least 12,000 feet AGL
Clouds: sky clear below 12,000 feet AGL
Weather: automated observation with no human augmentation;
there may or may not be significant weather present at this time

METAR text: KBJC 231029Z AUTO 28016KT 10SM CLR M01/M16 A2999 RMK AO2 PWINO
Conditions at: KBJC (BROOMFIELD/JEFFC, CO, US) observed 1029 UTC 23 January 2019
Temperature: -1.0°C (30°F)
Dewpoint: -16.0°C ( 3°F) [RH = 31%]
Pressure (altimeter): 29.99 inches Hg (1015.7 mb)
Winds: from the W (280 degrees) at 18 MPH (16 knots; 8.2 m/s)
Visibility: 10 or more miles (16+ km)
Ceiling: at least 12,000 feet AGL
Clouds: sky clear below 12,000 feet AGL
Weather: automated observation with no human augmentation;
there may or may not be significant weather present at this time

METAR text: KBJC 231012Z AUTO 28018KT 10SM CLR M01/M16 A2999 RMK AO2 PWINO
Conditions at: KBJC (BROOMFIELD/JEFFC, CO, US) observed 1012 UTC 23 January 2019
Temperature: -1.0°C (30°F)
Dewpoint: -16.0°C ( 3°F) [RH = 31%]
Pressure (altimeter): 29.99 inches Hg (1015.7 mb)
Winds: from the W (280 degrees) at 21 MPH (18 knots; 9.3 m/s)
Visibility: 10 or more miles (16+ km)
Ceiling: at least 12,000 feet AGL
Clouds: sky clear below 12,000 feet AGL
Weather: automated observation with no human augmentation;
there may or may not be significant weather present at this time

METAR text: KBJC 230953Z AUTO 28018G21KT 10SM CLR M01/M15 A2999 RMK AO2 PWINO
Conditions at: KBJC (BROOMFIELD/JEFFC, CO, US) observed 0953 UTC 23 January 2019
Temperature: -1.0°C (30°F)
Dewpoint: -15.0°C ( 5°F) [RH = 34%]
Pressure (altimeter): 29.99 inches Hg (1015.7 mb)
Winds: from the W (280 degrees) at 21 MPH (18 knots; 9.3 m/s)
gusting to 24 MPH (21 knots; 10.8 m/s)
Visibility: 10 or more miles (16+ km)
Ceiling: at least 12,000 feet AGL
Clouds: sky clear below 12,000 feet AGL
Weather: automated observation with no human augmentation;
there may or may not be significant weather present at this time

METAR text: KBJC 230930Z AUTO 27013KT 10SM CLR M02/M15 A3000 RMK AO2 PWINO
Conditions at: KBJC (BROOMFIELD/JEFFC, CO, US) observed 0930 UTC 23 January 2019
Temperature: -2.0°C (28°F)
Dewpoint: -15.0°C ( 5°F) [RH = 36%]
Pressure (altimeter): 30.00 inches Hg (1016.0 mb)
Winds: from the W (270 degrees) at 15 MPH (13 knots; 6.7 m/s)
Visibility: 10 or more miles (16+ km)
Ceiling: at least 12,000 feet AGL
Clouds: sky clear below 12,000 feet AGL
Weather: automated observation with no human augmentation;
there may or may not be significant weather present at this time

METAR text: KBJC 230913Z AUTO 27013KT 10SM CLR M02/M15 A3000 RMK AO2 PWINO
Conditions at: KBJC (BROOMFIELD/JEFFC, CO, US) observed 0913 UTC 23 January 2019
Temperature: -2.0°C (28°F)
Dewpoint: -15.0°C ( 5°F) [RH = 36%]
Pressure (altimeter): 30.00 inches Hg (1016.0 mb)
Winds: from the W (270 degrees) at 15 MPH (13 knots; 6.7 m/s)
Visibility: 10 or more miles (16+ km)
Ceiling: at least 12,000 feet AGL
Clouds: sky clear below 12,000 feet AGL
Weather: automated observation with no human augmentation;
there may or may not be significant weather present at this time

METAR text: KBJC 230852Z AUTO 28014G18KT 10SM CLR M02/M15 A3000 RMK AO2 PWINO
Conditions at: KBJC (BROOMFIELD/JEFFC, CO, US) observed 0852 UTC 23 January 2019
Temperature: -2.0°C (28°F)
Dewpoint: -15.0°C ( 5°F) [RH = 36%]
Pressure (altimeter): 30.00 inches Hg (1016.0 mb)
Winds: from the W (280 degrees) at 16 MPH (14 knots; 7.2 m/s)
gusting to 21 MPH (18 knots; 9.3 m/s)
Visibility: 10 or more miles (16+ km)
Ceiling: at least 12,000 feet AGL
Clouds: sky clear below 12,000 feet AGL
Weather: automated observation with no human augmentation;
there may or may not be significant weather present at this time

METAR text: KBJC 230834Z AUTO 27012G15KT 10SM CLR M02/M15 A3000 RMK AO2 PWINO
Conditions at: KBJC (BROOMFIELD/JEFFC, CO, US) observed 0834 UTC 23 January 2019
Temperature: -2.0°C (28°F)
Dewpoint: -15.0°C ( 5°F) [RH = 36%]
Pressure (altimeter): 30.00 inches Hg (1016.0 mb)
Winds: from the W (270 degrees) at 14 MPH (12 knots; 6.2 m/s)
gusting to 17 MPH (15 knots; 7.7 m/s)
Visibility: 10 or more miles (16+ km)
Ceiling: at least 12,000 feet AGL
Clouds: sky clear below 12,000 feet AGL
Weather: automated observation with no human augmentation;
there may or may not be significant weather present at this time

METAR text: KBJC 230829Z AUTO 25006KT 10SM CLR M02/M16 A3000 RMK AO2 PWINO
Conditions at: KBJC (BROOMFIELD/JEFFC, CO, US) observed 0829 UTC 23 January 2019
Temperature: -2.0°C (28°F)
Dewpoint: -16.0°C ( 3°F) [RH = 33%]
Pressure (altimeter): 30.00 inches Hg (1016.0 mb)
Winds: from the WSW (250 degrees) at 7 MPH (6 knots; 3.1 m/s)
Visibility: 10 or more miles (16+ km)
Ceiling: at least 12,000 feet AGL
Clouds: sky clear below 12,000 feet AGL
Weather: automated observation with no human augmentation;
there may or may not be significant weather present at this time

METAR text: KBJC 230811Z AUTO 21005KT 10SM CLR M03/M16 A3001 RMK AO2 PWINO
Conditions at: KBJC (BROOMFIELD/JEFFC, CO, US) observed 0811 UTC 23 January 2019
Temperature: -3.0°C (27°F)
Dewpoint: -16.0°C ( 3°F) [RH = 36%]
Pressure (altimeter): 30.01 inches Hg (1016.3 mb)
Winds: from the SSW (210 degrees) at 6 MPH (5 knots; 2.6 m/s)
Visibility: 10 or more miles (16+ km)
Ceiling: at least 12,000 feet AGL
Clouds: sky clear below 12,000 feet AGL
Weather: automated observation with no human augmentation;
there may or may not be significant weather present at this time

METAR text: KBJC 230752Z AUTO 00000KT 10SM CLR M02/M16 A3002 RMK AO2 PWINO
Conditions at: KBJC (BROOMFIELD/JEFFC, CO, US) observed 0752 UTC 23 January 2019
Temperature: -2.0°C (28°F)
Dewpoint: -16.0°C ( 3°F) [RH = 33%]
Pressure (altimeter): 30.02 inches Hg (1016.7 mb)
Winds: calm
Visibility: 10 or more miles (16+ km)
Ceiling: at least 12,000 feet AGL
Clouds: sky clear below 12,000 feet AGL
Weather: automated observation with no human augmentation;
there may or may not be significant weather present at this time

METAR text: KBJC 230734Z AUTO 31004KT 10SM CLR M03/M15 A3003 RMK AO2 PWINO
Conditions at: KBJC (BROOMFIELD/JEFFC, CO, US) observed 0734 UTC 23 January 2019
Temperature: -3.0°C (27°F)
Dewpoint: -15.0°C ( 5°F) [RH = 39%]
Pressure (altimeter): 30.03 inches Hg (1017.0 mb)
Winds: from the NW (310 degrees) at 5 MPH (4 knots; 2.1 m/s)
Visibility: 10 or more miles (16+ km)
Ceiling: at least 12,000 feet AGL
Clouds: sky clear below 12,000 feet AGL
Weather: automated observation with no human augmentation;
there may or may not be significant weather present at this time

METAR text: KBJC 230728Z AUTO 31007KT 10SM CLR M04/M15 A3004 RMK AO2 PWINO
Conditions at: KBJC (BROOMFIELD/JEFFC, CO, US) observed 0728 UTC 23 January 2019
Temperature: -4.0°C (25°F)
Dewpoint: -15.0°C ( 5°F) [RH = 42%]
Pressure (altimeter): 30.04 inches Hg (1017.4 mb)
Winds: from the NW (310 degrees) at 8 MPH (7 knots; 3.6 m/s)
Visibility: 10 or more miles (16+ km)
Ceiling: at least 12,000 feet AGL
Clouds: sky clear below 12,000 feet AGL
Weather: automated observation with no human augmentation;
there may or may not be significant weather present at this time

METAR text: KBJC 230712Z AUTO 28008KT 10SM CLR M03/M15 A3004 RMK AO2 PWINO
Conditions at: KBJC (BROOMFIELD/JEFFC, CO, US) observed 0712 UTC 23 January 2019
Temperature: -3.0°C (27°F)
Dewpoint: -15.0°C ( 5°F) [RH = 39%]
Pressure (altimeter): 30.04 inches Hg (1017.4 mb)
Winds: from the W (280 degrees) at 9 MPH (8 knots; 4.1 m/s)
Visibility: 10 or more miles (16+ km)
Ceiling: at least 12,000 feet AGL
Clouds: sky clear below 12,000 feet AGL
Weather: automated observation with no human augmentation;
there may or may not be significant weather present at this time

METAR text: KBJC 230654Z AUTO 28005KT 10SM CLR M06/M12 A3004 RMK AO2 PWINO
Conditions at: KBJC (BROOMFIELD/JEFFC, CO, US) observed 0654 UTC 23 January 2019
Temperature: -6.0°C (21°F)
Dewpoint: -12.0°C (10°F) [RH = 62%]
Pressure (altimeter): 30.04 inches Hg (1017.4 mb)
Winds: from the W (280 degrees) at 6 MPH (5 knots; 2.6 m/s)
Visibility: 10 or more miles (16+ km)
Ceiling: at least 12,000 feet AGL
Clouds: sky clear below 12,000 feet AGL
Weather: automated observation with no human augmentation;
there may or may not be significant weather present at this time

METAR text: KBJC 230648Z AUTO 26003KT 10SM CLR M06/M12 A3004 RMK AO2 PWINO
Conditions at: KBJC (BROOMFIELD/JEFFC, CO, US) observed 0648 UTC 23 January 2019
Temperature: -6.0°C (21°F)
Dewpoint: -12.0°C (10°F) [RH = 62%]
Pressure (altimeter): 30.04 inches Hg (1017.4 mb)
Winds: from the W (260 degrees) at 3 MPH (3 knots; 1.5 m/s)
Visibility: 10 or more miles (16+ km)
Ceiling: at least 12,000 feet AGL
Clouds: sky clear below 12,000 feet AGL
Weather: automated observation with no human augmentation;
there may or may not be significant weather present at this time

METAR text: KBJC 230630Z AUTO 28009KT 10SM CLR M05/M13 A3004 RMK AO2 PWINO
Conditions at: KBJC (BROOMFIELD/JEFFC, CO, US) observed 0630 UTC 23 January 2019
Temperature: -5.0°C (23°F)
Dewpoint: -13.0°C ( 9°F) [RH = 53%]
Pressure (altimeter): 30.04 inches Hg (1017.4 mb)
Winds: from the W (280 degrees) at 10 MPH (9 knots; 4.6 m/s)
Visibility: 10 or more miles (16+ km)
Ceiling: at least 12,000 feet AGL
Clouds: sky clear below 12,000 feet AGL
Weather: automated observation with no human augmentation;
there may or may not be significant weather present at this time

METAR text: KBJC 230612Z AUTO 27003KT 10SM CLR M06/M12 A3005 RMK AO2 PWINO
Conditions at: KBJC (BROOMFIELD/JEFFC, CO, US) observed 0612 UTC 23 January 2019
Temperature: -6.0°C (21°F)
Dewpoint: -12.0°C (10°F) [RH = 62%]
Pressure (altimeter): 30.05 inches Hg (1017.7 mb)
Winds: from the W (270 degrees) at 3 MPH (3 knots; 1.5 m/s)
Visibility: 10 or more miles (16+ km)
Ceiling: at least 12,000 feet AGL
Clouds: sky clear below 12,000 feet AGL
Weather: automated observation with no human augmentation;
there may or may not be significant weather present at this time

METAR text: KBJC 230553Z AUTO 20004KT 10SM CLR M05/M12 A3004 RMK AO2 PWINO
Conditions at: KBJC (BROOMFIELD/JEFFC, CO, US) observed 0553 UTC 23 January 2019
Temperature: -5.0°C (23°F)
Dewpoint: -12.0°C (10°F) [RH = 58%]
Pressure (altimeter): 30.04 inches Hg (1017.4 mb)
Winds: from the SSW (200 degrees) at 5 MPH (4 knots; 2.1 m/s)
Visibility: 10 or more miles (16+ km)
Ceiling: at least 12,000 feet AGL
Clouds: sky clear below 12,000 feet AGL
Weather: automated observation with no human augmentation;
there may or may not be significant weather present at this time

METAR text: KBJC 230529Z AUTO 20004KT 10SM CLR M05/M12 A3004 RMK AO2 PWINO
Conditions at: KBJC (BROOMFIELD/JEFFC, CO, US) observed 0529 UTC 23 January 2019
Temperature: -5.0°C (23°F)
Dewpoint: -12.0°C (10°F) [RH = 58%]
Pressure (altimeter): 30.04 inches Hg (1017.4 mb)
Winds: from the SSW (200 degrees) at 5 MPH (4 knots; 2.1 m/s)
Visibility: 10 or more miles (16+ km)
Ceiling: at least 12,000 feet AGL
Clouds: sky clear below 12,000 feet AGL
Weather: automated observation with no human augmentation;
there may or may not be significant weather present at this time

METAR text: KBJC 230511Z AUTO 00000KT 10SM CLR M05/M11 A3005 RMK AO2 PWINO
Conditions at: KBJC (BROOMFIELD/JEFFC, CO, US) observed 0511 UTC 23 January 2019
Temperature: -5.0°C (23°F)
Dewpoint: -11.0°C (12°F) [RH = 63%]
Pressure (altimeter): 30.05 inches Hg (1017.7 mb)
Winds: calm
Visibility: 10 or more miles (16+ km)
Ceiling: at least 12,000 feet AGL
Clouds: sky clear below 12,000 feet AGL
Weather: automated observation with no human augmentation;
there may or may not be significant weather present at this time

METAR text: KBJC 230453Z AUTO 13004KT 10SM CLR M04/M12 A3005 RMK AO2 PWINO
Conditions at: KBJC (BROOMFIELD/JEFFC, CO, US) observed 0453 UTC 23 January 2019
Temperature: -4.0°C (25°F)
Dewpoint: -12.0°C (10°F) [RH = 54%]
Pressure (altimeter): 30.05 inches Hg (1017.7 mb)
Winds: from the SE (130 degrees) at 5 MPH (4 knots; 2.1 m/s)
Visibility: 10 or more miles (16+ km)
Ceiling: at least 12,000 feet AGL
Clouds: sky clear below 12,000 feet AGL
Weather: automated observation with no human augmentation;
there may or may not be significant weather present at this time

METAR text: KBJC 230445Z VRB05KT 30SM SCT100 M04/M12 A3006
Conditions at: KBJC (BROOMFIELD/JEFFC, CO, US) observed 0445 UTC 23 January 2019
Temperature: -4.0°C (25°F)
Dewpoint: -12.0°C (10°F) [RH = 54%]
Pressure (altimeter): 30.06 inches Hg (1018.0 mb)
Winds: variable direction winds at 6 MPH (5 knots; 2.6 m/s)
Visibility: 30 miles (48 km)
Ceiling: at least 12,000 feet AGL
Clouds: scattered clouds at 10000 feet AGL
Weather: no significant weather observed at this time

METAR text: KBJC 230429Z AUTO 14007KT 10SM CLR M04/M12 A3006 RMK AO2 PWINO
Conditions at: KBJC (BROOMFIELD/JEFFC, CO, US) observed 0429 UTC 23 January 2019
Temperature: -4.0°C (25°F)
Dewpoint: -12.0°C (10°F) [RH = 54%]
Pressure (altimeter): 30.06 inches Hg (1018.0 mb)
Winds: from the SE (140 degrees) at 8 MPH (7 knots; 3.6 m/s)
Visibility: 10 or more miles (16+ km)
Ceiling: at least 12,000 feet AGL
Clouds: sky clear below 12,000 feet AGL
Weather: automated observation with no human augmentation;
there may or may not be significant weather present at this time

METAR text: KBJC 230412Z AUTO 15005KT 10SM CLR M03/M12 A3006 RMK AO2 PWINO
Conditions at: KBJC (BROOMFIELD/JEFFC, CO, US) observed 0412 UTC 23 January 2019
Temperature: -3.0°C (27°F)
Dewpoint: -12.0°C (10°F) [RH = 50%]
Pressure (altimeter): 30.06 inches Hg (1018.0 mb)
Winds: from the SSE (150 degrees) at 6 MPH (5 knots; 2.6 m/s)
Visibility: 10 or more miles (16+ km)
Ceiling: at least 12,000 feet AGL
Clouds: sky clear below 12,000 feet AGL
Weather: automated observation with no human augmentation;
there may or may not be significant weather present at this time

METAR text: KBJC 230345Z 00000KT 30SM SCT100 M04/M12 A3008
Conditions at: KBJC (BROOMFIELD/JEFFC, CO, US) observed 0345 UTC 23 January 2019
Temperature: -4.0°C (25°F)
Dewpoint: -12.0°C (10°F) [RH = 54%]
Pressure (altimeter): 30.08 inches Hg (1018.7 mb)
Winds: calm
Visibility: 30 miles (48 km)
Ceiling: at least 12,000 feet AGL
Clouds: scattered clouds at 10000 feet AGL
Weather: no significant weather observed at this time

METAR text: KBJC 230245Z 00000KT 30SM FEW050 M04/M12 A3007
Conditions at: KBJC (BROOMFIELD/JEFFC, CO, US) observed 0245 UTC 23 January 2019
Temperature: -4.0°C (25°F)
Dewpoint: -12.0°C (10°F) [RH = 54%]
Pressure (altimeter): 30.07 inches Hg (1018.4 mb)
Winds: calm
Visibility: 30 miles (48 km)
Ceiling: at least 12,000 feet AGL
Clouds: few clouds at 5000 feet AGL
Weather: no significant weather observed at this time

METAR text: KBJC 230145Z 25003KT 30SM SCT100 M04/M12 A3009
Conditions at: KBJC (BROOMFIELD/JEFFC, CO, US) observed 0145 UTC 23 January 2019
Temperature: -4.0°C (25°F)
Dewpoint: -12.0°C (10°F) [RH = 54%]
Pressure (altimeter): 30.09 inches Hg (1019.0 mb)
Winds: from the WSW (250 degrees) at 3 MPH (3 knots; 1.5 m/s)
Visibility: 30 miles (48 km)
Ceiling: at least 12,000 feet AGL
Clouds: scattered clouds at 10000 feet AGL
Weather: no significant weather observed at this time

METAR text: KBJC 230045Z 00000KT 30SM SCT100 M02/M13 A3008
Conditions at: KBJC (BROOMFIELD/JEFFC, CO, US) observed 0045 UTC 23 January 2019
Temperature: -2.0°C (28°F)
Dewpoint: -13.0°C ( 9°F) [RH = 43%]
Pressure (altimeter): 30.08 inches Hg (1018.7 mb)
Winds: calm
Visibility: 30 miles (48 km)
Ceiling: at least 12,000 feet AGL
Clouds: scattered clouds at 10000 feet AGL
Weather: no significant weather observed at this time

METAR text: KBJC 222345Z 02007KT 30SM SCT100 M02/M13 A3008
Conditions at: KBJC (BROOMFIELD/JEFFC, CO, US) observed 2345 UTC 22 January 2019
Temperature: -2.0°C (28°F)
Dewpoint: -13.0°C ( 9°F) [RH = 43%]
Pressure (altimeter): 30.08 inches Hg (1018.7 mb)
Winds: from the NNE (20 degrees) at 8 MPH (7 knots; 3.6 m/s)
Visibility: 30 miles (48 km)
Ceiling: at least 12,000 feet AGL
Clouds: scattered clouds at 10000 feet AGL
Weather: no significant weather observed at this time

METAR text: KBJC 222247Z 36007KT 30SM BKN050 00/M12 A3008
Conditions at: KBJC (BROOMFIELD/JEFFC, CO, US) observed 2247 UTC 22 January 2019
Temperature: 0.0°C (32°F)
Dewpoint: -12.0°C (10°F) [RH = 40%]
Pressure (altimeter): 30.08 inches Hg (1018.7 mb)
Winds: from the N (360 degrees) at 8 MPH (7 knots; 3.6 m/s)
Visibility: 30 miles (48 km)
Ceiling: 5000 feet AGL
Clouds: broken clouds at 5000 feet AGL
Weather: no significant weather observed at this time

METAR text: KBJC 222047Z 36016G21KT 30SM BKN050 BKN080 00/M11 A3007
Conditions at: KBJC (BROOMFIELD/JEFFC, CO, US) observed 2047 UTC 22 January 2019
Temperature: 0.0°C (32°F)
Dewpoint: -11.0°C (12°F) [RH = 43%]
Pressure (altimeter): 30.07 inches Hg (1018.4 mb)
Winds: from the N (360 degrees) at 18 MPH (16 knots; 8.2 m/s)
gusting to 24 MPH (21 knots; 10.8 m/s)
Visibility: 30 miles (48 km)
Ceiling: 5000 feet AGL
Clouds: broken clouds at 5000 feet AGL
broken clouds at 8000 feet AGL
Weather: no significant weather observed at this time

METAR text: KBJC 221950Z 01014G23KT 30SM FEW038 BKN047 BKN070 M01/M10 A3009 RMK SHSN DSNT S-W
Conditions at: KBJC (BROOMFIELD/JEFFC, CO, US) observed 1950 UTC 22 January 2019
Temperature: -1.0°C (30°F)
Dewpoint: -10.0°C (14°F) [RH = 50%]
Pressure (altimeter): 30.09 inches Hg (1019.0 mb)
Winds: from the N (10 degrees) at 16 MPH (14 knots; 7.2 m/s)
gusting to 26 MPH (23 knots; 11.8 m/s)
Visibility: 30 miles (48 km)
Ceiling: 4700 feet AGL
Clouds: few clouds at 3800 feet AGL
broken clouds at 4700 feet AGL
broken clouds at 7000 feet AGL
Weather: no significant weather observed at this time

METAR text: KBJC 221850Z 01022G28KT 10SM SCT013 BKN050 M01/M09 A3010
Conditions at: KBJC (BROOMFIELD/JEFFC, CO, US) observed 1850 UTC 22 January 2019
Temperature: -1.0°C (30°F)
Dewpoint: -9.0°C (16°F) [RH = 55%]
Pressure (altimeter): 30.10 inches Hg (1019.4 mb)
Winds: from the N (10 degrees) at 25 MPH (22 knots; 11.3 m/s)
gusting to 32 MPH (28 knots; 14.4 m/s)
Visibility: 10 or more miles (16+ km)
Ceiling: 5000 feet AGL
Clouds: scattered clouds at 1300 feet AGL
broken clouds at 5000 feet AGL
Weather: no significant weather observed at this time

METAR text: KBJC 221750Z 36012G18KT 10SM SCT013 BKN050 M02/M07 A3011
Conditions at: KBJC (BROOMFIELD/JEFFC, CO, US) observed 1750 UTC 22 January 2019
Temperature: -2.0°C (28°F)
Dewpoint: -7.0°C (19°F) [RH = 69%]
Pressure (altimeter): 30.11 inches Hg (1019.7 mb)
Winds: from the N (360 degrees) at 14 MPH (12 knots; 6.2 m/s)
gusting to 21 MPH (18 knots; 9.3 m/s)
Visibility: 10 or more miles (16+ km)
Ceiling: 5000 feet AGL
Clouds: scattered clouds at 1300 feet AGL
broken clouds at 5000 feet AGL
Weather: no significant weather observed at this time

METAR text: KBJC 221645Z 36013KT 3SM SCT022 SCT028 BKN060 M03/M07 A3009
Conditions at: KBJC (BROOMFIELD/JEFFC, CO, US) observed 1645 UTC 22 January 2019
Temperature: -3.0°C (27°F)
Dewpoint: -7.0°C (19°F) [RH = 74%]
Pressure (altimeter): 30.09 inches Hg (1019.0 mb)
Winds: from the N (360 degrees) at 15 MPH (13 knots; 6.7 m/s)
Visibility: 3 miles ( 5 km)
Ceiling: 6000 feet AGL
Clouds: scattered clouds at 2200 feet AGL
scattered clouds at 2800 feet AGL
broken clouds at 6000 feet AGL
Weather: no significant weather observed at this time

Forecast for: KBJC (BROOMFIELD/JEFFC, CO, US)
Text: KBJC 240203Z 2402/2424 01006KT P6SM SCT080 BKN100
Forecast period: 0200 to 0600 UTC 24 January 2019
Forecast type: FROM: standard forecast or significant change
Winds: from the N (10 degrees) at 7 MPH (6 knots; 3.1 m/s)
Visibility: 6 or more miles 10+ km)
Ceiling: 10000 feet AGL
Clouds: scattered clouds at 8000 feet AGL
broken clouds at 10000 feet AGL
Weather: no significant weather forecast for this period
Text: FM240600 34008KT P6SM SCT030 BKN080
Forecast period: 0600 to 1300 UTC 24 January 2019
Forecast type: FROM: standard forecast or significant change
Winds: from the NNW (340 degrees) at 9 MPH (8 knots; 4.1 m/s)
Visibility: 6 or more miles 10+ km)
Ceiling: 8000 feet AGL
Clouds: scattered clouds at 3000 feet AGL
broken clouds at 8000 feet AGL
Weather: no significant weather forecast for this period
Text: FM241300 04008KT 1SM -SN BKN015 OVC050
Forecast period: 1300 to 1900 UTC 24 January 2019
Forecast type: FROM: standard forecast or significant change
Winds: from the NE (40 degrees) at 9 MPH (8 knots; 4.1 m/s)
Visibility: 1.00 miles (1.61 km)
Ceiling: 1500 feet AGL
Clouds: broken clouds at 1500 feet AGL
overcast cloud deck at 5000 feet AGL
Weather: -SN  (light snow)
Text: PROB30 2413/2416 1/2SM SN FG OVC010
Forecast period: 1300 to 1600 UTC 24 January 2019
Forecast type: PROBABLE: 30 percent likelihood of the following during this time
Visibility: 0.50 miles (0.80 km)
Ceiling: 1000 feet AGL
Clouds: overcast cloud deck at 1000 feet AGL
Weather: SN FG  (moderate snow, fog)
Text: FM241900 VRB05KT P6SM BKN030 BKN100
Forecast period: 1900 to 2200 UTC 24 January 2019
Forecast type: FROM: standard forecast or significant change
Winds: variable direction winds at 6 MPH (5 knots; 2.6 m/s)
Visibility: 6 or more miles 10+ km)
Ceiling: 3000 feet AGL
Clouds: broken clouds at 3000 feet AGL
broken clouds at 10000 feet AGL
Weather: no significant weather forecast for this period
Text: FM242200 28007KT P6SM SCT050 SCT200
Forecast period: 2200 UTC 24 January 2019 to 0000 UTC 25 January 2019
Forecast type: FROM: standard forecast or significant change
Winds: from the W (280 degrees) at 8 MPH (7 knots; 3.6 m/s)
Visibility: 6 or more miles 10+ km)
Ceiling: at least 12,000 feet AGL
Clouds: scattered clouds at 5000 feet AGL
scattered clouds at 20000 feet AGL
Weather: no significant weather forecast for this period